createdAt,value
2023-05-09T00:00:26.638Z,10.10
2023-05-09T00:01:26.690Z,10.90
2023-05-09T00:02:26.712Z,10.90
2023-05-09T00:03:26.713Z,12.60
2023-05-09T00:04:26.621Z,11.70
2023-05-09T00:05:26.578Z,11.40
2023-05-09T00:06:26.472Z,11.20
2023-05-09T00:07:26.616Z,10.60
2023-05-09T00:08:26.681Z,11.00
2023-05-09T00:09:26.718Z,11.10
2023-05-09T00:10:26.561Z,12.00
2023-05-09T00:11:26.577Z,11.60
2023-05-09T00:12:26.513Z,11.50
2023-05-09T00:13:26.479Z,11.90
2023-05-09T00:14:26.363Z,13.20
2023-05-09T00:15:26.581Z,11.70
2023-05-09T00:16:26.567Z,10.60
2023-05-09T00:17:26.588Z,11.90
2023-05-09T00:18:26.521Z,11.20
2023-05-09T00:19:26.616Z,10.00
2023-05-09T00:20:26.435Z,11.00
2023-05-09T00:21:26.444Z,12.80
2023-05-09T00:22:26.443Z,11.40
2023-05-09T00:23:26.457Z,9.90
2023-05-09T00:24:26.445Z,10.80
2023-05-09T00:25:26.437Z,11.20
2023-05-09T00:26:26.286Z,10.60
2023-05-09T00:27:26.356Z,11.70
2023-05-09T00:28:26.349Z,10.90
2023-05-09T00:29:26.342Z,10.80
2023-05-09T00:30:26.427Z,11.60
2023-05-09T00:31:26.368Z,12.00
2023-05-09T00:32:26.317Z,12.10
2023-05-09T00:33:26.319Z,11.60
2023-05-09T00:34:26.268Z,11.50
2023-05-09T00:35:26.356Z,12.10
2023-05-09T00:36:26.263Z,12.50
2023-05-09T00:37:26.261Z,11.00
2023-05-09T00:38:26.253Z,11.70
2023-05-09T00:39:26.251Z,11.30
2023-05-09T00:40:26.257Z,11.30
2023-05-09T00:41:26.327Z,11.80
2023-05-09T00:42:26.354Z,11.50
2023-05-09T00:43:26.252Z,11.80
2023-05-09T00:44:26.238Z,11.90
2023-05-09T00:45:26.142Z,13.40
2023-05-09T00:46:26.225Z,10.80
2023-05-09T00:47:26.134Z,10.20
2023-05-09T00:48:26.167Z,10.00
2023-05-09T00:49:26.168Z,10.60
2023-05-09T00:50:26.100Z,10.10
2023-05-09T00:51:26.108Z,10.60
2023-05-09T00:52:26.113Z,10.50
2023-05-09T00:53:26.180Z,9.90
2023-05-09T00:54:26.077Z,10.40
2023-05-09T00:55:26.065Z,11.20
2023-05-09T00:56:26.208Z,9.60
2023-05-09T00:57:26.046Z,11.90
2023-05-09T00:58:25.947Z,12.00
2023-05-09T00:59:25.912Z,11.80
2023-05-09T01:00:26.098Z,12.60
2023-05-09T01:01:26.139Z,14.40
2023-05-09T01:02:26.025Z,11.60
2023-05-09T01:03:26.156Z,12.60
2023-05-09T01:04:25.931Z,11.90
2023-05-09T01:05:25.941Z,12.10
2023-05-09T01:06:25.969Z,13.60
2023-05-09T01:07:25.904Z,11.60
2023-05-09T01:08:25.921Z,13.30
2023-05-09T01:09:25.944Z,11.50
2023-05-09T01:10:25.839Z,12.10
2023-05-09T01:11:25.972Z,13.20
2023-05-09T01:12:25.897Z,12.50
2023-05-09T01:13:25.938Z,12.30
2023-05-09T01:14:25.826Z,13.00
2023-05-09T01:15:25.830Z,11.70
2023-05-09T01:16:25.998Z,11.60
2023-05-09T01:17:25.857Z,10.90
2023-05-09T01:18:25.939Z,12.60
2023-05-09T01:19:25.789Z,11.60
2023-05-09T01:20:25.878Z,11.40
2023-05-09T01:21:25.886Z,12.70
2023-05-09T01:22:25.818Z,13.40
2023-05-09T01:23:25.631Z,11.90
2023-05-09T01:24:25.844Z,12.90
2023-05-09T01:25:25.778Z,13.20
2023-05-09T01:26:25.847Z,12.10
2023-05-09T01:27:25.780Z,13.50
2023-05-09T01:28:25.754Z,14.50
2023-05-09T01:29:25.814Z,12.70
2023-05-09T01:30:25.741Z,15.30
2023-05-09T01:31:25.751Z,13.10
2023-05-09T01:32:25.774Z,14.10
2023-05-09T01:33:25.728Z,13.70
2023-05-09T01:34:25.722Z,13.80
2023-05-09T01:35:25.789Z,13.20
2023-05-09T01:36:25.696Z,12.90
2023-05-09T01:37:25.620Z,14.90
2023-05-09T01:38:25.674Z,14.70
2023-05-09T01:39:25.730Z,13.60
2023-05-09T01:40:25.858Z,13.60
2023-05-09T01:41:25.717Z,14.70
2023-05-09T01:42:25.637Z,15.40
2023-05-09T01:43:25.526Z,13.50
2023-05-09T01:44:25.566Z,14.90
2023-05-09T01:45:25.459Z,15.20
2023-05-09T01:46:25.747Z,13.10
2023-05-09T01:47:25.600Z,14.80
2023-05-09T01:48:25.558Z,14.80
2023-05-09T01:49:25.633Z,12.70
2023-05-09T01:50:25.435Z,12.50
2023-05-09T01:51:25.529Z,14.00
2023-05-09T01:52:25.440Z,12.50
2023-05-09T01:53:25.516Z,13.40
2023-05-09T01:54:25.627Z,12.60
2023-05-09T01:55:25.431Z,12.60
2023-05-09T01:56:25.235Z,12.20
2023-05-09T01:57:25.403Z,14.20
2023-05-09T01:58:25.390Z,12.60
2023-05-09T01:59:25.370Z,12.40
2023-05-09T02:00:25.219Z,12.40
2023-05-09T02:01:25.338Z,12.70
2023-05-09T02:02:25.368Z,12.70
2023-05-09T02:03:25.229Z,12.90
2023-05-09T02:04:25.302Z,13.00
2023-05-09T02:05:25.164Z,13.20
2023-05-09T02:06:25.279Z,12.00
2023-05-09T02:07:25.361Z,12.00
2023-05-09T02:08:25.262Z,11.20
2023-05-09T02:09:25.271Z,12.00
2023-05-09T02:10:25.299Z,13.30
2023-05-09T02:11:25.230Z,13.00
2023-05-09T02:12:25.237Z,11.40
2023-05-09T02:13:25.407Z,11.20
2023-05-09T02:14:25.206Z,12.10
2023-05-09T02:15:25.196Z,12.70
2023-05-09T02:16:25.260Z,12.40
2023-05-09T02:17:25.209Z,10.90
2023-05-09T02:18:25.268Z,12.70
2023-05-09T02:19:24.994Z,10.80
2023-05-09T02:20:25.171Z,12.40
2023-05-09T02:21:26.340Z,10.90
2023-05-09T02:22:25.087Z,9.90
2023-05-09T02:23:25.185Z,11.50
2023-05-09T02:24:25.121Z,11.80
2023-05-09T02:25:25.062Z,11.20
2023-05-09T02:26:25.084Z,11.50
2023-05-09T02:27:25.109Z,11.10
2023-05-09T02:28:25.122Z,11.30
2023-05-09T02:29:25.054Z,11.50
2023-05-09T02:30:25.091Z,12.90
2023-05-09T02:31:24.998Z,12.00
2023-05-09T02:32:25.124Z,13.00
2023-05-09T02:33:25.008Z,10.90
2023-05-09T02:34:25.172Z,12.00
2023-05-09T02:35:24.955Z,12.70
2023-05-09T02:36:24.940Z,11.70
2023-05-09T02:37:24.935Z,14.10
2023-05-09T02:38:24.945Z,11.90
2023-05-09T02:39:24.948Z,14.10
2023-05-09T02:40:24.952Z,14.20
2023-05-09T02:41:24.881Z,14.10
2023-05-09T02:42:24.894Z,14.50
2023-05-09T02:43:24.904Z,14.30
2023-05-09T02:44:24.910Z,13.80
2023-05-09T02:45:24.920Z,12.90
2023-05-09T02:46:24.871Z,13.20
2023-05-09T02:47:24.879Z,12.20
2023-05-09T02:48:24.861Z,12.50
2023-05-09T02:49:32.023Z,11.00
2023-05-09T02:50:24.701Z,11.20
2023-05-09T02:51:24.666Z,11.60
2023-05-09T02:52:24.627Z,11.50
2023-05-09T02:53:24.800Z,12.70
2023-05-09T02:54:24.664Z,11.10
2023-05-09T02:55:24.633Z,11.30
2023-05-09T02:56:24.834Z,11.80
2023-05-09T02:57:24.735Z,12.20
2023-05-09T02:58:24.594Z,10.50
2023-05-09T02:59:24.740Z,10.20
2023-05-09T03:00:24.709Z,10.60
2023-05-09T03:01:24.720Z,9.90
2023-05-09T03:02:24.722Z,10.30
2023-05-09T03:03:24.690Z,9.90
2023-05-09T03:04:24.637Z,9.20
2023-05-09T03:05:24.619Z,9.60
2023-05-09T03:06:24.664Z,9.30
2023-05-09T03:07:24.783Z,9.40
2023-05-09T03:08:24.652Z,9.80
2023-05-09T03:09:24.564Z,9.20
2023-05-09T03:10:24.560Z,9.90
2023-05-09T03:11:24.570Z,10.00
2023-05-09T03:12:24.513Z,9.30
2023-05-09T03:13:24.664Z,8.60
2023-05-09T03:14:24.483Z,10.80
2023-05-09T03:15:24.518Z,9.70
2023-05-09T03:16:24.556Z,9.30
2023-05-09T03:17:24.641Z,10.30
2023-05-09T03:18:24.450Z,11.00
2023-05-09T03:19:24.534Z,10.50
2023-05-09T03:20:24.448Z,10.90
2023-05-09T03:21:24.479Z,11.90
2023-05-09T03:22:24.392Z,10.90
2023-05-09T03:23:24.488Z,9.90
2023-05-09T03:24:24.429Z,10.60
2023-05-09T03:25:24.283Z,11.30
2023-05-09T03:26:24.399Z,10.90
2023-05-09T03:27:24.345Z,10.80
2023-05-09T03:28:24.191Z,11.80
2023-05-09T03:29:24.412Z,11.10
2023-05-09T03:30:24.326Z,13.00
2023-05-09T03:31:24.348Z,12.00
2023-05-09T03:32:24.368Z,11.10
2023-05-09T03:33:24.324Z,13.20
2023-05-09T03:34:24.269Z,10.70
2023-05-09T03:35:24.301Z,10.90
2023-05-09T03:36:24.313Z,12.20
2023-05-09T03:37:26.208Z,9.40
2023-05-09T03:38:24.245Z,10.80
2023-05-09T03:39:24.263Z,8.80
2023-05-09T03:40:24.295Z,9.90
2023-05-09T03:41:24.123Z,9.30
2023-05-09T03:42:24.127Z,8.60
2023-05-09T03:43:24.084Z,11.60
2023-05-09T03:44:24.122Z,11.30
2023-05-09T03:45:24.040Z,8.60
2023-05-09T03:46:24.322Z,10.30
2023-05-09T03:47:24.019Z,9.40
2023-05-09T03:48:24.130Z,9.70
2023-05-09T03:49:24.084Z,9.00
2023-05-09T03:50:23.979Z,9.90
2023-05-09T03:51:24.156Z,8.70
2023-05-09T03:52:24.078Z,10.30
2023-05-09T03:53:24.064Z,8.50
2023-05-09T03:54:24.076Z,10.80
2023-05-09T03:55:24.113Z,11.10
2023-05-09T03:56:24.101Z,10.70
2023-05-09T03:57:24.148Z,12.00
2023-05-09T03:58:24.053Z,10.50
2023-05-09T03:59:24.037Z,12.30
2023-05-09T04:00:23.847Z,15.30
2023-05-09T04:01:24.002Z,11.20
2023-05-09T04:02:24.126Z,10.00
2023-05-09T04:03:24.120Z,10.40
2023-05-09T04:04:23.966Z,11.70
2023-05-09T04:05:23.951Z,11.90
2023-05-09T04:06:23.941Z,11.90
2023-05-09T04:07:24.043Z,12.00
2023-05-09T04:08:23.967Z,10.50
2023-05-09T04:09:23.740Z,12.00
2023-05-09T04:10:23.767Z,11.90
2023-05-09T04:11:23.780Z,11.70
2023-05-09T04:12:23.929Z,11.30
2023-05-09T04:13:24.112Z,11.40
2023-05-09T04:14:23.878Z,12.80
2023-05-09T04:15:23.817Z,12.30
2023-05-09T04:16:23.840Z,12.00
2023-05-09T04:17:23.850Z,11.20
2023-05-09T04:18:23.794Z,13.40
2023-05-09T04:19:23.875Z,12.50
2023-05-09T04:20:23.792Z,13.20
2023-05-09T04:21:23.804Z,13.00
2023-05-09T04:22:23.633Z,11.90
2023-05-09T04:23:23.872Z,12.40
2023-05-09T04:24:23.808Z,11.20
2023-05-09T04:25:23.819Z,11.90
2023-05-09T04:26:23.769Z,11.80
2023-05-09T04:27:23.721Z,12.40
2023-05-09T04:28:23.828Z,12.20
2023-05-09T04:29:23.685Z,11.40
2023-05-09T04:30:23.722Z,11.70
2023-05-09T04:31:23.822Z,12.40
2023-05-09T04:32:23.677Z,10.40
2023-05-09T04:33:23.660Z,12.50
2023-05-09T04:34:23.772Z,11.40
2023-05-09T04:35:23.630Z,11.90
2023-05-09T04:36:23.656Z,12.90
2023-05-09T04:37:23.521Z,12.20
2023-05-09T04:38:23.616Z,11.30
2023-05-09T04:39:23.646Z,12.30
2023-05-09T04:40:24.371Z,11.80
2023-05-09T04:41:23.615Z,14.20
2023-05-09T04:42:23.634Z,12.30
2023-05-09T04:43:23.538Z,11.00
2023-05-09T04:44:23.392Z,11.00
2023-05-09T04:45:23.403Z,10.80
2023-05-09T04:46:25.643Z,11.90
2023-05-09T04:47:23.438Z,11.50
2023-05-09T04:48:23.402Z,13.10
2023-05-09T04:49:23.374Z,11.30
2023-05-09T04:50:23.502Z,13.00
2023-05-09T04:51:23.376Z,11.50
2023-05-09T04:52:23.472Z,11.90
2023-05-09T04:53:23.538Z,13.20
2023-05-09T04:54:23.407Z,11.70
2023-05-09T04:55:23.511Z,13.80
2023-05-09T04:56:23.464Z,12.70
2023-05-09T04:57:23.381Z,12.90
2023-05-09T04:58:23.286Z,12.40
2023-05-09T04:59:23.268Z,12.00
2023-05-09T05:00:23.298Z,12.60
2023-05-09T05:01:23.246Z,14.10
2023-05-09T05:02:23.233Z,13.50
2023-05-09T05:03:23.306Z,12.00
2023-05-09T05:04:23.248Z,14.20
2023-05-09T05:05:25.356Z,12.90
2023-05-09T05:06:23.275Z,12.90
2023-05-09T05:07:23.327Z,15.10
2023-05-09T05:08:23.308Z,13.80
2023-05-09T05:09:23.229Z,12.90
2023-05-09T05:10:23.233Z,14.00
2023-05-09T05:11:23.376Z,13.40
2023-05-09T05:12:23.212Z,13.30
2023-05-09T05:13:23.386Z,12.90
2023-05-09T05:14:23.212Z,13.90
2023-05-09T05:15:23.126Z,14.20
2023-05-09T05:16:23.399Z,14.00
2023-05-09T05:17:23.258Z,12.60
2023-05-09T05:18:23.290Z,13.20
2023-05-09T05:19:23.246Z,12.60
2023-05-09T05:20:23.134Z,13.50
2023-05-09T05:21:23.276Z,13.20
2023-05-09T05:22:23.295Z,12.80
2023-05-09T05:23:23.332Z,13.30
2023-05-09T05:24:23.115Z,13.80
2023-05-09T05:25:22.970Z,14.60
2023-05-09T05:26:23.060Z,13.60
2023-05-09T05:27:23.207Z,12.50
2023-05-09T05:28:23.102Z,12.20
2023-05-09T05:29:23.114Z,13.50
2023-05-09T05:30:23.128Z,15.10
2023-05-09T05:31:22.944Z,13.40
2023-05-09T05:32:23.076Z,12.40
2023-05-09T05:33:23.233Z,13.60
2023-05-09T05:34:23.151Z,13.10
2023-05-09T05:35:23.158Z,14.40
2023-05-09T05:36:23.181Z,12.80
2023-05-09T05:37:22.965Z,12.50
2023-05-09T05:38:22.971Z,12.60
2023-05-09T05:39:22.913Z,11.80
2023-05-09T05:40:23.019Z,14.40
2023-05-09T05:41:22.995Z,12.10
2023-05-09T05:42:22.942Z,12.60
2023-05-09T05:43:22.961Z,13.80
2023-05-09T05:44:22.882Z,12.10
2023-05-09T05:45:22.901Z,12.70
2023-05-09T05:46:22.973Z,13.50
2023-05-09T05:47:22.932Z,12.10
2023-05-09T05:48:23.006Z,14.00
2023-05-09T05:49:22.945Z,12.60
2023-05-09T05:50:22.935Z,12.40
2023-05-09T05:51:22.930Z,12.10
2023-05-09T05:52:22.808Z,12.80
2023-05-09T05:53:22.915Z,13.90
2023-05-09T05:54:22.970Z,12.60
2023-05-09T05:55:22.884Z,12.10
2023-05-09T05:56:22.860Z,14.70
2023-05-09T05:57:22.913Z,14.70
2023-05-09T05:58:22.820Z,13.30
2023-05-09T05:59:22.888Z,13.40
2023-05-09T06:00:22.821Z,13.50
2023-05-09T06:01:22.817Z,13.60
2023-05-09T06:02:22.755Z,13.00
2023-05-09T06:03:22.870Z,13.30
2023-05-09T06:04:22.780Z,13.20
2023-05-09T06:05:22.655Z,13.40
2023-05-09T06:06:22.669Z,13.00
2023-05-09T06:07:22.766Z,12.60
2023-05-09T06:08:22.636Z,13.70
2023-05-09T06:09:22.754Z,14.10
2023-05-09T06:10:22.635Z,15.30
2023-05-09T06:11:22.608Z,14.30
2023-05-09T06:12:22.708Z,16.40
2023-05-09T06:13:22.684Z,13.40
2023-05-09T06:14:22.647Z,12.90
2023-05-09T06:15:22.759Z,13.10
2023-05-09T06:16:22.568Z,12.60
2023-05-09T06:17:22.641Z,13.10
2023-05-09T06:18:22.533Z,12.50
2023-05-09T06:19:22.530Z,12.50
2023-05-09T06:20:22.513Z,13.50
2023-05-09T06:21:22.623Z,12.70
2023-05-09T06:22:22.498Z,13.50
2023-05-09T06:23:22.615Z,11.00
2023-05-09T06:24:34.420Z,12.40
2023-05-09T06:25:22.473Z,13.20
2023-05-09T06:26:22.487Z,12.00
2023-05-09T06:27:22.441Z,11.70
2023-05-09T06:28:22.556Z,11.60
2023-05-09T06:29:22.424Z,12.50
2023-05-09T06:30:26.393Z,11.70
2023-05-09T06:31:24.207Z,13.70
2023-05-09T06:32:22.422Z,11.00
2023-05-09T06:33:22.537Z,11.90
2023-05-09T06:34:22.531Z,12.20
2023-05-09T06:35:22.442Z,11.80
2023-05-09T06:36:22.412Z,12.90
2023-05-09T06:37:22.389Z,12.30
2023-05-09T06:38:22.362Z,12.20
2023-05-09T06:39:22.452Z,11.80
2023-05-09T06:40:22.310Z,11.90
2023-05-09T06:41:22.285Z,11.50
2023-05-09T06:42:22.248Z,12.60
2023-05-09T06:43:22.338Z,11.30
2023-05-09T06:44:22.309Z,11.60
2023-05-09T06:45:22.465Z,11.80
2023-05-09T06:46:22.354Z,12.40
2023-05-09T06:47:22.252Z,11.80
2023-05-09T06:48:22.182Z,11.70
2023-05-09T06:49:22.195Z,11.40
2023-05-09T06:50:22.286Z,12.00
2023-05-09T06:51:22.215Z,13.00
2023-05-09T06:52:22.211Z,11.30
2023-05-09T06:53:22.274Z,12.30
2023-05-09T06:54:22.181Z,12.30
2023-05-09T06:55:22.240Z,12.40
2023-05-09T06:56:22.233Z,11.40
2023-05-09T06:57:22.128Z,11.90
2023-05-09T06:58:22.107Z,10.70
2023-05-09T06:59:22.170Z,10.50
2023-05-09T07:00:22.103Z,10.40
2023-05-09T07:01:22.103Z,10.60
2023-05-09T07:02:22.186Z,11.70
2023-05-09T07:03:22.064Z,13.50
2023-05-09T07:04:22.028Z,11.90
2023-05-09T07:05:22.229Z,11.00
2023-05-09T07:06:22.032Z,12.00
2023-05-09T07:07:22.159Z,12.30
2023-05-09T07:08:22.047Z,12.70
2023-05-09T07:09:22.001Z,10.40
2023-05-09T07:10:21.969Z,10.80
2023-05-09T07:11:22.111Z,11.70
2023-05-09T07:12:22.011Z,11.40
2023-05-09T07:13:21.999Z,11.10
2023-05-09T07:14:21.980Z,11.30
2023-05-09T07:15:32.978Z,12.70
2023-05-09T07:16:21.972Z,11.10
2023-05-09T07:17:23.865Z,10.60
2023-05-09T07:18:21.882Z,10.00
2023-05-09T07:19:22.437Z,11.50
2023-05-09T07:20:21.868Z,10.90
2023-05-09T07:21:21.874Z,10.70
2023-05-09T07:22:21.897Z,12.90
2023-05-09T07:23:21.934Z,11.20
2023-05-09T07:24:21.852Z,11.00
2023-05-09T07:25:21.830Z,11.90
2023-05-09T07:26:21.813Z,11.40
2023-05-09T07:27:21.882Z,11.70
2023-05-09T07:28:21.794Z,11.50
2023-05-09T07:29:21.884Z,11.20
2023-05-09T07:30:21.744Z,11.50
2023-05-09T07:31:21.762Z,11.20
2023-05-09T07:32:21.779Z,11.10
2023-05-09T07:33:21.804Z,11.00
2023-05-09T07:34:21.891Z,10.50
2023-05-09T07:35:21.802Z,10.80
2023-05-09T07:36:21.777Z,12.20
2023-05-09T07:37:21.756Z,11.70
2023-05-09T07:38:21.756Z,11.10
2023-05-09T07:39:21.757Z,12.00
2023-05-09T07:40:21.826Z,11.40
2023-05-09T07:41:21.717Z,11.80
2023-05-09T07:42:21.698Z,14.90
2023-05-09T07:43:21.710Z,11.60
2023-05-09T07:44:21.593Z,11.30
2023-05-09T07:45:23.744Z,11.00
2023-05-09T07:46:21.608Z,12.40
2023-05-09T07:47:21.628Z,11.40
2023-05-09T07:48:21.546Z,11.40
2023-05-09T07:49:21.693Z,11.60
2023-05-09T07:50:21.534Z,12.10
2023-05-09T07:51:21.618Z,12.90
2023-05-09T07:52:21.532Z,11.40
2023-05-09T07:53:21.501Z,14.80
2023-05-09T07:54:21.483Z,14.70
2023-05-09T07:55:21.547Z,11.80
2023-05-09T07:56:21.616Z,11.70
2023-05-09T07:57:21.510Z,12.40
2023-05-09T07:58:21.483Z,13.10
2023-05-09T07:59:21.465Z,12.20
2023-05-09T08:00:21.486Z,13.20
2023-05-09T08:01:21.429Z,13.00
2023-05-09T08:02:21.575Z,13.90
2023-05-09T08:03:21.516Z,12.40
2023-05-09T08:04:21.486Z,11.90
2023-05-09T08:05:21.409Z,13.60
2023-05-09T08:06:21.514Z,12.70
2023-05-09T08:07:21.422Z,14.10
2023-05-09T08:08:21.411Z,12.00
2023-05-09T08:09:21.398Z,11.50
2023-05-09T08:10:21.375Z,11.90
2023-05-09T08:11:21.454Z,13.60
2023-05-09T08:12:21.447Z,13.30
2023-05-09T08:13:21.402Z,11.80
2023-05-09T08:14:21.311Z,12.80
2023-05-09T08:15:21.321Z,12.40
2023-05-09T08:16:21.323Z,12.50
2023-05-09T08:17:21.365Z,13.80
2023-05-09T08:18:21.303Z,12.10
2023-05-09T08:19:21.313Z,13.30
2023-05-09T08:20:21.222Z,13.20
2023-05-09T08:21:22.278Z,12.90
2023-05-09T08:22:21.304Z,12.50
2023-05-09T08:23:21.230Z,12.70
2023-05-09T08:24:21.198Z,13.30
2023-05-09T08:25:21.247Z,13.90
2023-05-09T08:26:21.300Z,13.40
2023-05-09T08:27:21.215Z,12.40
2023-05-09T08:28:21.936Z,13.40
2023-05-09T08:29:21.242Z,13.00
2023-05-09T08:30:21.176Z,12.20
2023-05-09T08:31:21.283Z,14.10
2023-05-09T08:32:21.245Z,13.30
2023-05-09T08:33:21.156Z,13.60
2023-05-09T08:34:21.087Z,14.50
2023-05-09T08:35:21.188Z,13.60
2023-05-09T08:36:21.117Z,13.40
2023-05-09T08:37:21.090Z,13.60
2023-05-09T08:38:21.111Z,14.00
2023-05-09T08:39:21.119Z,14.10
2023-05-09T08:40:21.125Z,13.00
2023-05-09T08:41:21.032Z,13.80
2023-05-09T08:42:21.296Z,13.80
2023-05-09T08:43:21.080Z,13.30
2023-05-09T08:44:20.990Z,14.60
2023-05-09T08:45:21.084Z,12.60
2023-05-09T08:46:21.027Z,12.90
2023-05-09T08:47:21.002Z,13.00
2023-05-09T08:48:20.993Z,14.20
2023-05-09T08:49:21.008Z,13.40
2023-05-09T08:50:21.066Z,14.20
2023-05-09T08:51:20.941Z,15.30
2023-05-09T08:52:20.940Z,13.30
2023-05-09T08:53:20.949Z,15.30
2023-05-09T08:54:22.797Z,14.50
2023-05-09T08:55:20.975Z,13.70
2023-05-09T08:56:20.908Z,14.20
2023-05-09T08:57:20.914Z,13.80
2023-05-09T08:58:20.912Z,16.00
2023-05-09T08:59:20.889Z,14.50
2023-05-09T09:00:21.277Z,16.00
2023-05-09T09:01:20.927Z,15.20
2023-05-09T09:02:20.921Z,14.80
2023-05-09T09:03:20.877Z,15.30
2023-05-09T09:04:20.823Z,15.20
2023-05-09T09:05:39.907Z,14.80
2023-05-09T09:06:20.873Z,14.30
2023-05-09T09:07:20.818Z,16.00
2023-05-09T09:08:20.801Z,16.80
2023-05-09T09:09:20.664Z,14.90
2023-05-09T09:10:20.790Z,15.40
2023-05-09T09:11:20.701Z,14.70
2023-05-09T09:12:20.780Z,15.80
2023-05-09T09:13:20.786Z,15.80
2023-05-09T09:14:20.745Z,16.30
2023-05-09T09:15:20.648Z,14.80
2023-05-09T09:16:20.762Z,15.50
2023-05-09T09:17:20.714Z,15.10
2023-05-09T09:18:20.671Z,16.70
2023-05-09T09:19:20.772Z,16.40
2023-05-09T09:20:20.683Z,16.40
2023-05-09T09:21:20.598Z,16.90
2023-05-09T09:22:20.657Z,16.00
2023-05-09T09:23:20.672Z,15.00
2023-05-09T09:24:20.713Z,15.50
2023-05-09T09:25:20.630Z,16.40
2023-05-09T09:26:20.606Z,14.90
2023-05-09T09:27:20.584Z,14.70
2023-05-09T09:28:20.597Z,15.10
2023-05-09T09:29:20.623Z,15.70
2023-05-09T09:30:20.624Z,15.40
2023-05-09T09:31:20.558Z,16.50
2023-05-09T09:32:20.525Z,14.60
2023-05-09T09:33:20.476Z,15.30
2023-05-09T09:34:20.481Z,15.90
2023-05-09T09:35:20.577Z,14.90
2023-05-09T09:36:20.481Z,14.90
2023-05-09T09:37:20.497Z,17.50
2023-05-09T09:38:20.438Z,16.70
2023-05-09T09:39:20.304Z,15.80
2023-05-09T09:40:20.454Z,16.30
2023-05-09T09:41:20.256Z,15.80
2023-05-09T09:42:20.496Z,15.10
2023-05-09T09:43:20.297Z,15.40
2023-05-09T09:44:20.512Z,17.40
2023-05-09T09:45:20.420Z,14.40
2023-05-09T09:46:20.379Z,15.60
2023-05-09T09:47:20.385Z,16.20
2023-05-09T09:48:20.368Z,14.60
2023-05-09T09:49:20.429Z,14.00
2023-05-09T09:50:20.442Z,16.60
2023-05-09T09:51:20.362Z,15.40
2023-05-09T09:52:20.365Z,16.40
2023-05-09T09:53:20.357Z,16.90
2023-05-09T09:54:20.366Z,15.90
2023-05-09T09:55:20.441Z,17.00
2023-05-09T09:56:20.236Z,14.10
2023-05-09T09:57:20.225Z,15.80
2023-05-09T09:58:20.331Z,15.80
2023-05-09T09:59:20.315Z,15.40
2023-05-09T10:00:20.296Z,15.20
2023-05-09T10:01:20.353Z,17.20
2023-05-09T10:02:20.115Z,17.10
2023-05-09T10:03:20.083Z,17.40
2023-05-09T10:04:20.165Z,17.60
2023-05-09T10:05:20.025Z,17.00
2023-05-09T10:06:20.175Z,17.60
2023-05-09T10:07:20.193Z,16.80
2023-05-09T10:08:20.146Z,16.60
2023-05-09T10:09:20.120Z,17.40
2023-05-09T10:10:20.150Z,16.40
2023-05-09T10:11:19.975Z,17.00
2023-05-09T10:12:20.069Z,16.20
2023-05-09T10:13:20.017Z,17.80
2023-05-09T10:14:20.088Z,17.90
2023-05-09T10:15:20.193Z,15.90
2023-05-09T10:16:28.516Z,15.30
2023-05-09T10:17:20.130Z,15.20
2023-05-09T10:18:20.385Z,16.60
2023-05-09T10:19:20.077Z,16.90
2023-05-09T10:20:20.002Z,15.10
2023-05-09T10:21:20.093Z,16.50
2023-05-09T10:22:20.044Z,15.40
2023-05-09T10:23:19.974Z,15.40
2023-05-09T10:24:20.052Z,14.30
2023-05-09T10:25:19.998Z,15.80
2023-05-09T10:26:19.916Z,14.40
2023-05-09T10:27:20.052Z,14.10
2023-05-09T10:28:19.776Z,15.20
2023-05-09T10:29:20.007Z,15.60
2023-05-09T10:30:19.911Z,15.90
2023-05-09T10:31:19.898Z,14.20
2023-05-09T10:32:20.008Z,14.50
2023-05-09T10:33:19.876Z,15.10
2023-05-09T10:34:19.888Z,15.00
2023-05-09T10:35:19.921Z,14.30
2023-05-09T10:36:19.825Z,15.10
2023-05-09T10:37:19.845Z,15.00
2023-05-09T10:38:19.876Z,15.50
2023-05-09T10:39:19.808Z,15.10
2023-05-09T10:40:19.874Z,15.90
2023-05-09T10:41:19.814Z,16.00
2023-05-09T10:42:19.744Z,16.20
2023-05-09T10:43:19.848Z,16.10
2023-05-09T10:44:19.874Z,14.30
2023-05-09T10:45:19.723Z,14.40
2023-05-09T10:46:19.647Z,13.80
2023-05-09T10:47:19.780Z,13.80
2023-05-09T10:48:19.682Z,13.30
2023-05-09T10:49:19.767Z,14.00
2023-05-09T10:50:19.703Z,14.70
2023-05-09T10:51:19.705Z,14.60
2023-05-09T10:52:19.536Z,15.90
2023-05-09T10:53:19.688Z,15.90
2023-05-09T10:54:19.685Z,14.00
2023-05-09T10:55:19.761Z,15.40
2023-05-09T10:56:19.685Z,15.90
2023-05-09T10:57:19.594Z,15.00
2023-05-09T10:58:19.679Z,15.80
2023-05-09T10:59:19.605Z,14.30
2023-05-09T11:00:19.609Z,15.50
2023-05-09T11:01:19.648Z,13.70
2023-05-09T11:02:19.498Z,14.00
2023-05-09T11:03:19.730Z,13.70
2023-05-09T11:04:19.557Z,14.60
2023-05-09T11:05:19.457Z,13.60
2023-05-09T11:06:19.387Z,13.80
2023-05-09T11:07:19.371Z,14.50
2023-05-09T11:08:19.347Z,16.30
2023-05-09T11:09:19.312Z,12.60
2023-05-09T11:10:19.336Z,12.70
2023-05-09T11:11:19.300Z,12.60
2023-05-09T11:12:19.328Z,14.60
2023-05-09T11:13:19.324Z,13.60
2023-05-09T11:14:19.361Z,13.00
2023-05-09T11:15:19.288Z,12.50
2023-05-09T11:16:19.372Z,12.70
2023-05-09T11:17:19.432Z,12.60
2023-05-09T11:18:19.351Z,12.00
2023-05-09T11:19:19.340Z,13.00
2023-05-09T11:20:19.395Z,13.30
2023-05-09T11:21:19.291Z,13.10
2023-05-09T11:22:19.377Z,13.70
2023-05-09T11:23:19.361Z,13.60
2023-05-09T11:24:19.317Z,13.20
2023-05-09T11:25:19.400Z,13.50
2023-05-09T11:26:19.413Z,13.10
2023-05-09T11:27:19.283Z,13.60
2023-05-09T11:28:19.302Z,12.90
2023-05-09T11:29:19.316Z,13.10
2023-05-09T11:30:19.267Z,13.10
2023-05-09T11:31:19.275Z,12.80
2023-05-09T11:32:19.271Z,12.70
2023-05-09T11:33:19.226Z,13.20
2023-05-09T11:34:19.266Z,13.50
2023-05-09T11:35:19.319Z,14.60
2023-05-09T11:36:19.229Z,12.40
2023-05-09T11:37:19.289Z,12.30
2023-05-09T11:38:19.169Z,13.80
2023-05-09T11:39:19.200Z,14.20
2023-05-09T11:40:19.287Z,13.40
2023-05-09T11:41:19.203Z,13.60
2023-05-09T11:42:19.150Z,11.90
2023-05-09T11:43:19.046Z,11.60
2023-05-09T11:44:19.118Z,12.10
2023-05-09T11:45:19.101Z,11.80
2023-05-09T11:46:19.246Z,12.10
2023-05-09T11:47:19.088Z,11.80
2023-05-09T11:48:19.103Z,13.70
2023-05-09T11:49:19.183Z,12.90
2023-05-09T11:50:18.936Z,14.20
2023-05-09T11:51:19.175Z,14.10
2023-05-09T11:52:19.078Z,13.40
2023-05-09T11:54:19.050Z,14.50
2023-05-09T11:55:19.535Z,13.50
2023-05-09T11:56:19.034Z,14.00
2023-05-09T11:57:18.950Z,13.70
2023-05-09T11:58:19.039Z,15.00
2023-05-09T11:59:18.871Z,13.90
2023-05-09T12:00:18.837Z,16.30
2023-05-09T12:01:18.849Z,14.90
2023-05-09T12:02:18.889Z,14.40
2023-05-09T12:03:19.240Z,13.20
2023-05-09T12:04:19.084Z,13.10
2023-05-09T12:05:18.836Z,13.30
2023-05-09T12:06:18.896Z,12.40
2023-05-09T12:07:18.756Z,13.00
2023-05-09T12:08:18.728Z,13.40
2023-05-09T12:09:18.945Z,13.10
2023-05-09T12:10:18.895Z,13.80
2023-05-09T12:11:18.839Z,12.90
2023-05-09T12:12:18.886Z,12.70
2023-05-09T12:13:18.936Z,12.70
2023-05-09T12:14:18.934Z,12.40
2023-05-09T12:15:19.351Z,11.60
2023-05-09T12:16:18.942Z,11.90
2023-05-09T12:17:18.750Z,11.90
2023-05-09T12:18:18.765Z,11.80
2023-05-09T12:19:18.932Z,12.40
2023-05-09T12:20:18.801Z,12.00
2023-05-09T12:21:18.809Z,12.50
2023-05-09T12:22:18.699Z,12.10
2023-05-09T12:23:18.698Z,12.30
2023-05-09T12:24:18.797Z,12.30
2023-05-09T12:25:18.786Z,11.70
2023-05-09T12:26:18.854Z,12.60
2023-05-09T12:27:18.655Z,11.40
2023-05-09T12:28:18.678Z,11.80
2023-05-09T12:29:18.835Z,13.10
2023-05-09T12:30:18.671Z,12.90
2023-05-09T12:31:18.756Z,12.80
2023-05-09T12:32:18.708Z,12.40
2023-05-09T12:33:18.657Z,13.30
2023-05-09T12:34:18.658Z,12.80
2023-05-09T12:35:18.683Z,12.40
2023-05-09T12:36:18.584Z,13.60
2023-05-09T12:37:18.581Z,13.40
2023-05-09T12:38:18.766Z,14.60
2023-05-09T12:39:18.551Z,14.60
2023-05-09T12:40:18.580Z,14.40
2023-05-09T12:41:34.936Z,12.50
2023-05-09T12:42:18.528Z,13.20
2023-05-09T12:43:18.735Z,13.30
2023-05-09T12:44:18.495Z,14.20
2023-05-09T12:45:18.975Z,13.70
2023-05-09T12:46:18.552Z,14.90
2023-05-09T12:47:18.538Z,15.00
2023-05-09T12:48:18.504Z,15.10
2023-05-09T12:49:18.527Z,14.70
2023-05-09T12:50:18.542Z,14.80
2023-05-09T12:51:18.444Z,14.50
2023-05-09T12:52:18.578Z,14.60
2023-05-09T12:53:18.431Z,13.40
2023-05-09T12:54:18.423Z,15.10